Aérodrome :
LOGIN :

S'inscrire | Disclaimer

   EN    FR    IT 

 










Légende :    VFR   VFR Marginal   IFR   IFR Intensif   IFR Très Intensif
Visi : 
Plafond : 
>= 8 km
>= 3000ft
5 à 8 km
1000 à 3000 ft
1500m à 5 km
500 à 1000 ft
800 à 1500m
200 à 500 ft
< 800m
< 200 ft
Symboles :   Orages  Brouillard  Fortes neiges  Fortes précipitations  Vent > 20 kt
SIGMETs :   Divers  Orages  Givrage  Turbulence  Onde Orograph.  Cendres Volcan.







- Altitude de l'aérodrome : 755 ft
- Code IATA : KSC


LZKZ - Kosice

DERNIER METAR :
  • 220130Z 01018KT 9999 -TSRA FEW010CB BKN065 14/12 Q1013

METARs EXPIRÉS :
  • 220100Z 04020G31KT 9999 -TSRA FEW015CB BKN035 14/13 Q1012
  • 220030Z 01023KT 9999 VCTS FEW033CB BKN055 17/12 Q1011
  • 220000Z 01020KT 9999 VCTS FEW022CB BKN055 19/13 Q1011
  • 212330Z 17006KT 9999 FEW040CB BKN060 21/18 Q1010
  • 212300Z 19006KT 9999 FEW040CB FEW050 BKN060 20/18 Q1010

TAF TAF LZKZ
Valide du 22 à 00h jusqu'au 23 à 00h UTC


212300Z 2200/2300 35008KT 9999 SCT040 BKN080
TEMPO 2200/2203 6000 TSRA SCT032CB BKN050
BECMG 2202/2204 03014KT
TEMPO 2203/2208 SHRA SCT022 BKN040
BECMG 2212/2214 03008KT
BECMG 2220/2222 VRB02KT SCT042 SCT100
Pas de NOTAMs connus pour ce terrain.



MET'MAP, la Météo Aéronautique d'un coup d'oeil ! - Copyright ORBIFLY Décembre 2007 - Disclaimer

ORBIFLY MET'MAP TEAM :

Programmation & Développement : Alexandra Zaïnal
Conception & Développement : Baudouin d'Aumeries
Co-Programmation & Développement : Marc-Olivier Méhu
Soutien technique & logistique : Manuel Goepfert

Contact : metmap@orbifly.com




SOURCES & CREDITS :

   NOAA